sensor_id;sensor_type;location;lat;lon;timestamp;P1;durP1;ratioP1;P2;durP2;ratioP2
20417;SDS011;10368;51.436;6.774;2022-08-21T00:01:42;9.57;;;5.63;;
20417;SDS011;10368;51.436;6.774;2022-08-21T00:04:10;8.70;;;5.57;;
20417;SDS011;10368;51.436;6.774;2022-08-21T00:06:46;9.90;;;5.85;;
20417;SDS011;10368;51.436;6.774;2022-08-21T00:09:13;7.65;;;5.68;;
20417;SDS011;10368;51.436;6.774;2022-08-21T00:11:40;12.05;;;5.57;;
20417;SDS011;10368;51.436;6.774;2022-08-21T00:14:08;12.23;;;7.55;;
20417;SDS011;10368;51.436;6.774;2022-08-21T00:16:36;7.13;;;6.20;;
20417;SDS011;10368;51.436;6.774;2022-08-21T00:19:04;6.95;;;5.30;;
20417;SDS011;10368;51.436;6.774;2022-08-21T00:21:33;8.68;;;5.55;;
20417;SDS011;10368;51.436;6.774;2022-08-21T00:24:00;8.93;;;5.30;;
20417;SDS011;10368;51.436;6.774;2022-08-21T00:26:28;7.88;;;6.07;;
20417;SDS011;10368;51.436;6.774;2022-08-21T00:28:55;12.88;;;6.32;;
20417;SDS011;10368;51.436;6.774;2022-08-21T00:31:24;8.93;;;5.97;;
20417;SDS011;10368;51.436;6.774;2022-08-21T00:33:51;12.25;;;6.72;;
20417;SDS011;10368;51.436;6.774;2022-08-21T00:36:26;10.63;;;7.88;;
20417;SDS011;10368;51.436;6.774;2022-08-21T00:38:54;12.13;;;6.30;;
20417;SDS011;10368;51.436;6.774;2022-08-21T00:41:21;8.50;;;5.90;;
20417;SDS011;10368;51.436;6.774;2022-08-21T00:44:04;10.60;;;6.20;;
20417;SDS011;10368;51.436;6.774;2022-08-21T00:46:32;8.40;;;6.35;;
20417;SDS011;10368;51.436;6.774;2022-08-21T00:48:59;7.20;;;6.18;;
20417;SDS011;10368;51.436;6.774;2022-08-21T00:51:28;8.75;;;5.93;;
20417;SDS011;10368;51.436;6.774;2022-08-21T00:54:03;7.25;;;5.95;;
20417;SDS011;10368;51.436;6.774;2022-08-21T00:56:30;6.72;;;6.03;;
20417;SDS011;10368;51.436;6.774;2022-08-21T00:58:58;9.32;;;6.32;;
20417;SDS011;10368;51.436;6.774;2022-08-21T01:01:26;9.18;;;5.75;;
20417;SDS011;10368;51.436;6.774;2022-08-21T01:03:54;13.88;;;8.73;;
20417;SDS011;10368;51.436;6.774;2022-08-21T01:06:21;8.85;;;6.97;;
20417;SDS011;10368;51.436;6.774;2022-08-21T01:08:48;9.80;;;6.65;;
20417;SDS011;10368;51.436;6.774;2022-08-21T01:11:18;8.15;;;6.10;;
20417;SDS011;10368;51.436;6.774;2022-08-21T01:13:48;12.82;;;6.70;;
20417;SDS011;10368;51.436;6.774;2022-08-21T01:16:19;11.65;;;6.78;;
20417;SDS011;10368;51.436;6.774;2022-08-21T01:18:47;10.65;;;8.40;;
20417;SDS011;10368;51.436;6.774;2022-08-21T01:21:19;12.77;;;6.88;;
20417;SDS011;10368;51.436;6.774;2022-08-21T01:23:53;7.50;;;6.18;;
20417;SDS011;10368;51.436;6.774;2022-08-21T01:26:23;8.88;;;7.13;;
20417;SDS011;10368;51.436;6.774;2022-08-21T01:29:01;9.02;;;7.60;;
20417;SDS011;10368;51.436;6.774;2022-08-21T01:31:29;9.95;;;7.20;;
20417;SDS011;10368;51.436;6.774;2022-08-21T01:33:59;8.63;;;6.93;;
20417;SDS011;10368;51.436;6.774;2022-08-21T01:36:27;6.07;;;5.50;;
20417;SDS011;10368;51.436;6.774;2022-08-21T01:38:54;11.27;;;6.65;;
20417;SDS011;10368;51.436;6.774;2022-08-21T01:41:21;11.68;;;6.93;;
20417;SDS011;10368;51.436;6.774;2022-08-21T01:43:49;8.00;;;6.63;;
20417;SDS011;10368;51.436;6.774;2022-08-21T01:46:16;11.15;;;6.68;;
20417;SDS011;10368;51.436;6.774;2022-08-21T01:48:43;6.65;;;6.05;;
20417;SDS011;10368;51.436;6.774;2022-08-21T01:51:10;7.18;;;5.80;;
20417;SDS011;10368;51.436;6.774;2022-08-21T01:53:37;12.27;;;6.82;;
20417;SDS011;10368;51.436;6.774;2022-08-21T01:56:06;10.80;;;7.07;;
20417;SDS011;10368;51.436;6.774;2022-08-21T01:58:37;8.25;;;7.03;;
20417;SDS011;10368;51.436;6.774;2022-08-21T02:01:08;9.18;;;6.97;;
20417;SDS011;10368;51.436;6.774;2022-08-21T02:03:36;9.55;;;7.10;;
20417;SDS011;10368;51.436;6.774;2022-08-21T02:06:04;10.93;;;7.20;;
20417;SDS011;10368;51.436;6.774;2022-08-21T02:08:33;7.22;;;6.32;;
20417;SDS011;10368;51.436;6.774;2022-08-21T02:11:00;12.70;;;7.70;;
20417;SDS011;10368;51.436;6.774;2022-08-21T02:13:27;11.65;;;7.43;;
20417;SDS011;10368;51.436;6.774;2022-08-21T02:15:55;11.00;;;6.88;;
20417;SDS011;10368;51.436;6.774;2022-08-21T02:18:22;7.15;;;6.18;;
20417;SDS011;10368;51.436;6.774;2022-08-21T02:20:52;7.65;;;6.85;;
20417;SDS011;10368;51.436;6.774;2022-08-21T02:23:22;10.27;;;6.88;;
20417;SDS011;10368;51.436;6.774;2022-08-21T02:25:52;14.23;;;8.50;;
20417;SDS011;10368;51.436;6.774;2022-08-21T02:28:23;10.20;;;7.32;;
20417;SDS011;10368;51.436;6.774;2022-08-21T02:30:52;10.27;;;7.82;;
20417;SDS011;10368;51.436;6.774;2022-08-21T02:33:23;7.43;;;6.60;;
20417;SDS011;10368;51.436;6.774;2022-08-21T02:35:50;9.00;;;7.40;;
20417;SDS011;10368;51.436;6.774;2022-08-21T02:38:21;10.25;;;6.65;;
20417;SDS011;10368;51.436;6.774;2022-08-21T02:40:49;9.90;;;7.50;;
20417;SDS011;10368;51.436;6.774;2022-08-21T02:43:17;9.82;;;6.82;;
20417;SDS011;10368;51.436;6.774;2022-08-21T02:45:46;9.88;;;7.20;;
20417;SDS011;10368;51.436;6.774;2022-08-21T02:48:15;8.23;;;6.38;;
20417;SDS011;10368;51.436;6.774;2022-08-21T02:50:46;9.55;;;7.15;;
20417;SDS011;10368;51.436;6.774;2022-08-21T02:53:14;9.68;;;6.70;;
20417;SDS011;10368;51.436;6.774;2022-08-21T02:55:46;12.60;;;6.75;;
20417;SDS011;10368;51.436;6.774;2022-08-21T02:58:14;8.88;;;8.00;;
20417;SDS011;10368;51.436;6.774;2022-08-21T03:00:42;10.20;;;6.45;;
20417;SDS011;10368;51.436;6.774;2022-08-21T03:03:10;11.25;;;6.30;;
20417;SDS011;10368;51.436;6.774;2022-08-21T03:05:41;12.27;;;7.65;;
20417;SDS011;10368;51.436;6.774;2022-08-21T03:08:09;8.20;;;7.18;;
20417;SDS011;10368;51.436;6.774;2022-08-21T03:10:37;7.82;;;7.05;;
20417;SDS011;10368;51.436;6.774;2022-08-21T03:13:05;24.23;;;8.48;;
20417;SDS011;10368;51.436;6.774;2022-08-21T03:15:33;10.55;;;8.20;;
20417;SDS011;10368;51.436;6.774;2022-08-21T03:18:01;9.90;;;8.38;;
20417;SDS011;10368;51.436;6.774;2022-08-21T03:20:29;11.32;;;8.07;;
20417;SDS011;10368;51.436;6.774;2022-08-21T03:22:59;12.45;;;8.00;;
20417;SDS011;10368;51.436;6.774;2022-08-21T03:25:27;11.00;;;7.85;;
20417;SDS011;10368;51.436;6.774;2022-08-21T03:28:07;10.13;;;7.35;;
20417;SDS011;10368;51.436;6.774;2022-08-21T03:30:42;12.23;;;7.32;;
20417;SDS011;10368;51.436;6.774;2022-08-21T03:33:10;10.35;;;7.63;;
20417;SDS011;10368;51.436;6.774;2022-08-21T03:35:44;11.02;;;7.35;;
20417;SDS011;10368;51.436;6.774;2022-08-21T03:38:13;12.73;;;8.30;;
20417;SDS011;10368;51.436;6.774;2022-08-21T03:40:42;12.00;;;7.70;;
20417;SDS011;10368;51.436;6.774;2022-08-21T03:43:09;14.80;;;8.00;;
20417;SDS011;10368;51.436;6.774;2022-08-21T03:45:37;13.13;;;9.35;;
20417;SDS011;10368;51.436;6.774;2022-08-21T03:48:05;10.75;;;7.70;;
20417;SDS011;10368;51.436;6.774;2022-08-21T03:50:34;11.48;;;8.90;;
20417;SDS011;10368;51.436;6.774;2022-08-21T03:53:06;11.88;;;8.43;;
20417;SDS011;10368;51.436;6.774;2022-08-21T03:55:43;9.00;;;7.85;;
20417;SDS011;10368;51.436;6.774;2022-08-21T03:58:12;9.18;;;7.60;;
20417;SDS011;10368;51.436;6.774;2022-08-21T04:00:42;11.35;;;8.82;;
20417;SDS011;10368;51.436;6.774;2022-08-21T04:03:11;10.75;;;8.68;;
20417;SDS011;10368;51.436;6.774;2022-08-21T04:05:38;10.60;;;8.00;;
20417;SDS011;10368;51.436;6.774;2022-08-21T04:08:05;13.50;;;8.77;;
20417;SDS011;10368;51.436;6.774;2022-08-21T04:10:33;12.68;;;8.48;;
20417;SDS011;10368;51.436;6.774;2022-08-21T04:13:02;11.85;;;9.18;;
20417;SDS011;10368;51.436;6.774;2022-08-21T04:15:30;11.85;;;9.07;;
20417;SDS011;10368;51.436;6.774;2022-08-21T04:17:57;16.13;;;9.27;;
20417;SDS011;10368;51.436;6.774;2022-08-21T04:20:25;13.15;;;8.60;;
20417;SDS011;10368;51.436;6.774;2022-08-21T04:22:52;13.00;;;8.80;;
20417;SDS011;10368;51.436;6.774;2022-08-21T04:25:20;11.32;;;9.40;;
20417;SDS011;10368;51.436;6.774;2022-08-21T04:27:48;9.35;;;8.55;;
20417;SDS011;10368;51.436;6.774;2022-08-21T04:30:16;10.52;;;8.98;;
20417;SDS011;10368;51.436;6.774;2022-08-21T04:32:47;11.30;;;9.00;;
20417;SDS011;10368;51.436;6.774;2022-08-21T04:35:16;12.93;;;9.13;;
20417;SDS011;10368;51.436;6.774;2022-08-21T04:37:44;13.25;;;10.55;;
20417;SDS011;10368;51.436;6.774;2022-08-21T04:40:11;11.68;;;10.35;;
20417;SDS011;10368;51.436;6.774;2022-08-21T04:42:44;12.80;;;10.70;;
20417;SDS011;10368;51.436;6.774;2022-08-21T04:47:47;15.75;;;10.70;;
20417;SDS011;10368;51.436;6.774;2022-08-21T04:50:19;17.45;;;13.20;;
20417;SDS011;10368;51.436;6.774;2022-08-21T04:52:46;13.35;;;11.10;;
20417;SDS011;10368;51.436;6.774;2022-08-21T04:55:16;13.95;;;10.43;;
20417;SDS011;10368;51.436;6.774;2022-08-21T04:57:45;12.20;;;10.88;;
20417;SDS011;10368;51.436;6.774;2022-08-21T05:00:15;11.88;;;10.00;;
20417;SDS011;10368;51.436;6.774;2022-08-21T05:02:46;12.68;;;10.57;;
20417;SDS011;10368;51.436;6.774;2022-08-21T05:05:17;14.32;;;11.35;;
20417;SDS011;10368;51.436;6.774;2022-08-21T05:07:46;12.63;;;11.38;;
20417;SDS011;10368;51.436;6.774;2022-08-21T05:10:14;13.70;;;11.07;;
20417;SDS011;10368;51.436;6.774;2022-08-21T05:12:42;11.68;;;10.50;;
20417;SDS011;10368;51.436;6.774;2022-08-21T05:15:10;11.82;;;9.98;;
20417;SDS011;10368;51.436;6.774;2022-08-21T05:17:39;11.75;;;10.40;;
20417;SDS011;10368;51.436;6.774;2022-08-21T05:20:07;18.65;;;11.75;;
20417;SDS011;10368;51.436;6.774;2022-08-21T05:22:34;10.35;;;9.43;;
20417;SDS011;10368;51.436;6.774;2022-08-21T05:25:02;14.05;;;11.50;;
20417;SDS011;10368;51.436;6.774;2022-08-21T05:27:35;15.55;;;11.80;;
20417;SDS011;10368;51.436;6.774;2022-08-21T05:30:05;15.18;;;11.63;;
20417;SDS011;10368;51.436;6.774;2022-08-21T05:32:34;15.55;;;11.27;;
20417;SDS011;10368;51.436;6.774;2022-08-21T05:35:02;15.07;;;11.68;;
20417;SDS011;10368;51.436;6.774;2022-08-21T05:37:33;12.10;;;10.82;;
20417;SDS011;10368;51.436;6.774;2022-08-21T05:40:01;13.27;;;11.88;;
20417;SDS011;10368;51.436;6.774;2022-08-21T05:42:47;13.25;;;12.05;;
20417;SDS011;10368;51.436;6.774;2022-08-21T05:45:23;15.00;;;13.43;;
20417;SDS011;10368;51.436;6.774;2022-08-21T05:48:08;13.95;;;12.23;;
20417;SDS011;10368;51.436;6.774;2022-08-21T05:50:35;17.02;;;13.60;;
20417;SDS011;10368;51.436;6.774;2022-08-21T05:53:04;16.52;;;13.68;;
20417;SDS011;10368;51.436;6.774;2022-08-21T05:55:33;13.18;;;11.88;;
20417;SDS011;10368;51.436;6.774;2022-08-21T05:58:01;14.50;;;12.98;;
20417;SDS011;10368;51.436;6.774;2022-08-21T06:00:28;14.48;;;12.98;;
20417;SDS011;10368;51.436;6.774;2022-08-21T06:02:56;17.15;;;12.90;;
20417;SDS011;10368;51.436;6.774;2022-08-21T06:05:23;14.52;;;13.07;;
20417;SDS011;10368;51.436;6.774;2022-08-21T06:08:02;14.57;;;12.57;;
20417;SDS011;10368;51.436;6.774;2022-08-21T06:10:30;17.25;;;12.77;;
20417;SDS011;10368;51.436;6.774;2022-08-21T06:12:57;13.65;;;11.52;;
20417;SDS011;10368;51.436;6.774;2022-08-21T06:15:24;13.18;;;11.85;;
20417;SDS011;10368;51.436;6.774;2022-08-21T06:17:52;14.73;;;11.88;;
20417;SDS011;10368;51.436;6.774;2022-08-21T06:20:20;12.35;;;11.15;;
20417;SDS011;10368;51.436;6.774;2022-08-21T06:22:47;11.48;;;10.32;;
20417;SDS011;10368;51.436;6.774;2022-08-21T06:25:16;14.02;;;11.68;;
20417;SDS011;10368;51.436;6.774;2022-08-21T06:27:44;17.73;;;11.25;;
20417;SDS011;10368;51.436;6.774;2022-08-21T06:30:12;14.32;;;10.68;;
20417;SDS011;10368;51.436;6.774;2022-08-21T06:32:39;12.77;;;9.93;;
20417;SDS011;10368;51.436;6.774;2022-08-21T06:35:06;17.63;;;9.93;;
20417;SDS011;10368;51.436;6.774;2022-08-21T06:37:34;12.63;;;9.55;;
20417;SDS011;10368;51.436;6.774;2022-08-21T06:40:01;17.13;;;10.73;;
20417;SDS011;10368;51.436;6.774;2022-08-21T06:42:30;10.60;;;8.23;;
20417;SDS011;10368;51.436;6.774;2022-08-21T06:44:57;11.30;;;8.52;;
20417;SDS011;10368;51.436;6.774;2022-08-21T06:47:24;12.75;;;8.30;;
20417;SDS011;10368;51.436;6.774;2022-08-21T06:49:51;14.63;;;8.60;;
20417;SDS011;10368;51.436;6.774;2022-08-21T06:52:18;10.75;;;7.65;;
20417;SDS011;10368;51.436;6.774;2022-08-21T06:54:45;9.60;;;7.75;;
20417;SDS011;10368;51.436;6.774;2022-08-21T06:57:12;12.90;;;8.35;;
20417;SDS011;10368;51.436;6.774;2022-08-21T06:59:39;13.02;;;7.72;;
20417;SDS011;10368;51.436;6.774;2022-08-21T07:02:06;11.30;;;7.45;;
20417;SDS011;10368;51.436;6.774;2022-08-21T07:04:34;10.77;;;7.25;;
20417;SDS011;10368;51.436;6.774;2022-08-21T07:07:00;9.50;;;7.18;;
20417;SDS011;10368;51.436;6.774;2022-08-21T07:09:27;11.65;;;7.65;;
20417;SDS011;10368;51.436;6.774;2022-08-21T07:11:54;12.65;;;8.57;;
20417;SDS011;10368;51.436;6.774;2022-08-21T07:14:22;10.27;;;7.13;;
20417;SDS011;10368;51.436;6.774;2022-08-21T07:16:52;8.57;;;7.28;;
20417;SDS011;10368;51.436;6.774;2022-08-21T07:19:19;11.82;;;7.15;;
20417;SDS011;10368;51.436;6.774;2022-08-21T07:21:46;10.35;;;6.63;;
20417;SDS011;10368;51.436;6.774;2022-08-21T07:24:13;11.23;;;5.85;;
20417;SDS011;10368;51.436;6.774;2022-08-21T07:26:40;8.48;;;5.03;;
20417;SDS011;10368;51.436;6.774;2022-08-21T07:29:07;8.77;;;4.63;;
20417;SDS011;10368;51.436;6.774;2022-08-21T07:31:35;7.57;;;4.43;;
20417;SDS011;10368;51.436;6.774;2022-08-21T07:34:02;6.13;;;4.90;;
20417;SDS011;10368;51.436;6.774;2022-08-21T07:36:29;6.43;;;4.63;;
20417;SDS011;10368;51.436;6.774;2022-08-21T07:38:58;7.65;;;4.28;;
20417;SDS011;10368;51.436;6.774;2022-08-21T07:41:26;10.90;;;5.25;;
20417;SDS011;10368;51.436;6.774;2022-08-21T07:43:55;10.63;;;4.03;;
20417;SDS011;10368;51.436;6.774;2022-08-21T07:46:23;10.35;;;3.15;;
20417;SDS011;10368;51.436;6.774;2022-08-21T07:48:51;11.60;;;6.28;;
20417;SDS011;10368;51.436;6.774;2022-08-21T07:51:19;7.28;;;2.30;;
20417;SDS011;10368;51.436;6.774;2022-08-21T07:53:53;5.10;;;2.00;;
20417;SDS011;10368;51.436;6.774;2022-08-21T07:56:21;3.90;;;1.92;;
20417;SDS011;10368;51.436;6.774;2022-08-21T07:58:48;7.18;;;2.30;;
20417;SDS011;10368;51.436;6.774;2022-08-21T08:01:18;5.53;;;2.42;;
20417;SDS011;10368;51.436;6.774;2022-08-21T08:03:49;6.82;;;2.53;;
20417;SDS011;10368;51.436;6.774;2022-08-21T08:06:16;6.45;;;2.13;;
20417;SDS011;10368;51.436;6.774;2022-08-21T08:08:45;4.28;;;1.77;;
20417;SDS011;10368;51.436;6.774;2022-08-21T08:11:12;10.80;;;2.30;;
20417;SDS011;10368;51.436;6.774;2022-08-21T08:13:43;5.38;;;2.13;;
20417;SDS011;10368;51.436;6.774;2022-08-21T08:16:12;1.83;;;1.38;;
20417;SDS011;10368;51.436;6.774;2022-08-21T08:18:40;3.10;;;1.50;;
20417;SDS011;10368;51.436;6.774;2022-08-21T08:21:08;4.20;;;1.92;;
20417;SDS011;10368;51.436;6.774;2022-08-21T08:23:36;3.08;;;1.38;;
20417;SDS011;10368;51.436;6.774;2022-08-21T08:26:04;4.28;;;1.50;;
20417;SDS011;10368;51.436;6.774;2022-08-21T08:28:31;4.40;;;1.45;;
20417;SDS011;10368;51.436;6.774;2022-08-21T08:30:59;4.28;;;1.67;;
20417;SDS011;10368;51.436;6.774;2022-08-21T08:33:27;2.92;;;1.83;;
20417;SDS011;10368;51.436;6.774;2022-08-21T08:35:54;3.03;;;2.05;;
20417;SDS011;10368;51.436;6.774;2022-08-21T08:38:21;10.00;;;1.70;;
20417;SDS011;10368;51.436;6.774;2022-08-21T08:40:55;2.83;;;1.20;;
20417;SDS011;10368;51.436;6.774;2022-08-21T08:43:34;1.77;;;1.40;;
20417;SDS011;10368;51.436;6.774;2022-08-21T08:46:03;4.13;;;1.90;;
20417;SDS011;10368;51.436;6.774;2022-08-21T08:52:05;3.03;;;1.10;;
20417;SDS011;10368;51.436;6.774;2022-08-21T08:57:14;5.78;;;1.50;;
20417;SDS011;10368;51.436;6.774;2022-08-21T08:59:44;1.95;;;1.23;;
20417;SDS011;10368;51.436;6.774;2022-08-21T09:02:14;4.10;;;1.85;;
20417;SDS011;10368;51.436;6.774;2022-08-21T09:04:43;2.72;;;1.10;;
20417;SDS011;10368;51.436;6.774;2022-08-21T09:20:37;4.45;;;1.15;;
20417;SDS011;10368;51.436;6.774;2022-08-21T09:26:11;2.25;;;1.80;;
20417;SDS011;10368;51.436;6.774;2022-08-21T09:28:41;8.23;;;1.60;;
20417;SDS011;10368;51.436;6.774;2022-08-21T09:31:29;4.50;;;1.65;;
20417;SDS011;10368;51.436;6.774;2022-08-21T09:36:49;3.33;;;1.10;;
20417;SDS011;10368;51.436;6.774;2022-08-21T09:39:25;3.58;;;1.55;;
20417;SDS011;10368;51.436;6.774;2022-08-21T09:42:06;2.90;;;1.33;;
20417;SDS011;10368;51.436;6.774;2022-08-21T09:44:36;3.03;;;1.55;;
20417;SDS011;10368;51.436;6.774;2022-08-21T09:47:06;1.70;;;1.08;;
20417;SDS011;10368;51.436;6.774;2022-08-21T09:49:35;4.72;;;2.28;;
20417;SDS011;10368;51.436;6.774;2022-08-21T09:52:05;2.50;;;1.25;;
20417;SDS011;10368;51.436;6.774;2022-08-21T09:54:42;3.67;;;1.20;;
20417;SDS011;10368;51.436;6.774;2022-08-21T09:57:14;3.90;;;1.33;;
20417;SDS011;10368;51.436;6.774;2022-08-21T10:00:15;4.32;;;1.25;;
20417;SDS011;10368;51.436;6.774;2022-08-21T10:06:04;3.47;;;1.20;;
20417;SDS011;10368;51.436;6.774;2022-08-21T10:08:35;2.75;;;1.15;;
20417;SDS011;10368;51.436;6.774;2022-08-21T10:11:06;2.65;;;1.25;;
20417;SDS011;10368;51.436;6.774;2022-08-21T10:18:42;2.33;;;1.20;;
20417;SDS011;10368;51.436;6.774;2022-08-21T10:21:35;2.55;;;1.40;;
20417;SDS011;10368;51.436;6.774;2022-08-21T10:27:22;3.08;;;1.20;;
20417;SDS011;10368;51.436;6.774;2022-08-21T10:30:16;3.83;;;1.38;;
20417;SDS011;10368;51.436;6.774;2022-08-21T10:33:07;4.07;;;1.40;;
20417;SDS011;10368;51.436;6.774;2022-08-21T10:35:59;4.00;;;1.35;;
20417;SDS011;10368;51.436;6.774;2022-08-21T10:38:52;5.13;;;1.75;;
20417;SDS011;10368;51.436;6.774;2022-08-21T10:47:28;4.03;;;1.55;;
20417;SDS011;10368;51.436;6.774;2022-08-21T10:50:13;2.08;;;1.20;;
20417;SDS011;10368;51.436;6.774;2022-08-21T10:55:18;3.40;;;2.05;;
20417;SDS011;10368;51.436;6.774;2022-08-21T10:58:08;2.67;;;1.10;;
20417;SDS011;10368;51.436;6.774;2022-08-21T11:00:48;2.47;;;0.80;;
20417;SDS011;10368;51.436;6.774;2022-08-21T11:03:25;1.38;;;0.88;;
20417;SDS011;10368;51.436;6.774;2022-08-21T11:06:04;1.25;;;0.80;;
20417;SDS011;10368;51.436;6.774;2022-08-21T11:08:40;2.95;;;1.30;;
20417;SDS011;10368;51.436;6.774;2022-08-21T11:11:18;2.03;;;1.35;;
20417;SDS011;10368;51.436;6.774;2022-08-21T11:14:08;4.88;;;0.98;;
20417;SDS011;10368;51.436;6.774;2022-08-21T11:17:27;2.53;;;1.05;;
20417;SDS011;10368;51.436;6.774;2022-08-21T11:22:15;2.47;;;1.10;;
20417;SDS011;10368;51.436;6.774;2022-08-21T11:27:49;3.40;;;1.42;;
20417;SDS011;10368;51.436;6.774;2022-08-21T11:30:21;2.28;;;0.70;;
20417;SDS011;10368;51.436;6.774;2022-08-21T11:35:54;2.85;;;0.98;;
20417;SDS011;10368;51.436;6.774;2022-08-21T11:38:34;2.55;;;1.00;;
20417;SDS011;10368;51.436;6.774;2022-08-21T11:41:13;2.17;;;0.90;;
20417;SDS011;10368;51.436;6.774;2022-08-21T11:44:10;2.63;;;1.10;;
20417;SDS011;10368;51.436;6.774;2022-08-21T11:47:00;2.58;;;1.23;;
20417;SDS011;10368;51.436;6.774;2022-08-21T11:49:52;2.30;;;1.13;;
20417;SDS011;10368;51.436;6.774;2022-08-21T11:55:47;2.65;;;1.13;;
20417;SDS011;10368;51.436;6.774;2022-08-21T11:58:54;2.17;;;1.30;;
20417;SDS011;10368;51.436;6.774;2022-08-21T12:01:25;2.45;;;1.30;;
20417;SDS011;10368;51.436;6.774;2022-08-21T12:06:36;4.28;;;0.93;;
20417;SDS011;10368;51.436;6.774;2022-08-21T12:12:04;1.95;;;0.93;;
20417;SDS011;10368;51.436;6.774;2022-08-21T12:14:45;2.38;;;0.90;;
20417;SDS011;10368;51.436;6.774;2022-08-21T12:17:21;4.20;;;1.10;;
20417;SDS011;10368;51.436;6.774;2022-08-21T12:20:01;2.38;;;1.20;;
20417;SDS011;10368;51.436;6.774;2022-08-21T12:22:47;1.08;;;0.70;;
20417;SDS011;10368;51.436;6.774;2022-08-21T12:25:20;0.77;;;0.77;;
20417;SDS011;10368;51.436;6.774;2022-08-21T12:27:49;3.72;;;1.58;;
20417;SDS011;10368;51.436;6.774;2022-08-21T12:30:20;2.20;;;1.00;;
20417;SDS011;10368;51.436;6.774;2022-08-21T12:32:55;2.25;;;1.00;;
20417;SDS011;10368;51.436;6.774;2022-08-21T12:35:27;2.70;;;0.90;;
20417;SDS011;10368;51.436;6.774;2022-08-21T12:38:02;1.15;;;0.70;;
20417;SDS011;10368;51.436;6.774;2022-08-21T12:40:53;2.38;;;0.85;;
20417;SDS011;10368;51.436;6.774;2022-08-21T12:43:29;1.45;;;0.75;;
20417;SDS011;10368;51.436;6.774;2022-08-21T12:46:02;1.10;;;1.00;;
20417;SDS011;10368;51.436;6.774;2022-08-21T12:48:41;2.45;;;1.20;;
20417;SDS011;10368;51.436;6.774;2022-08-21T12:51:23;2.65;;;1.17;;
20417;SDS011;10368;51.436;6.774;2022-08-21T12:53:56;3.03;;;0.95;;
20417;SDS011;10368;51.436;6.774;2022-08-21T12:56:25;1.88;;;1.00;;
20417;SDS011;10368;51.436;6.774;2022-08-21T12:59:00;1.35;;;0.90;;
20417;SDS011;10368;51.436;6.774;2022-08-21T13:04:10;2.28;;;2.05;;
20417;SDS011;10368;51.436;6.774;2022-08-21T13:06:44;1.67;;;1.17;;
20417;SDS011;10368;51.436;6.774;2022-08-21T13:09:12;6.07;;;1.33;;
20417;SDS011;10368;51.436;6.774;2022-08-21T13:11:43;2.05;;;1.13;;
20417;SDS011;10368;51.436;6.774;2022-08-21T13:16:57;2.85;;;1.05;;
20417;SDS011;10368;51.436;6.774;2022-08-21T13:19:25;3.33;;;1.15;;
20417;SDS011;10368;51.436;6.774;2022-08-21T13:21:53;2.67;;;1.23;;
20417;SDS011;10368;51.436;6.774;2022-08-21T13:24:21;1.67;;;0.80;;
20417;SDS011;10368;51.436;6.774;2022-08-21T13:27:17;2.03;;;1.10;;
20417;SDS011;10368;51.436;6.774;2022-08-21T13:29:47;3.95;;;0.88;;
20417;SDS011;10368;51.436;6.774;2022-08-21T13:32:21;1.75;;;0.90;;
20417;SDS011;10368;51.436;6.774;2022-08-21T13:34:50;4.53;;;1.00;;
20417;SDS011;10368;51.436;6.774;2022-08-21T13:37:19;5.95;;;1.10;;
20417;SDS011;10368;51.436;6.774;2022-08-21T13:39:51;2.28;;;1.00;;
20417;SDS011;10368;51.436;6.774;2022-08-21T13:42:21;1.23;;;0.98;;
20417;SDS011;10368;51.436;6.774;2022-08-21T13:44:50;1.83;;;0.88;;
20417;SDS011;10368;51.436;6.774;2022-08-21T13:47:19;4.15;;;0.90;;
20417;SDS011;10368;51.436;6.774;2022-08-21T13:49:51;2.67;;;0.90;;
20417;SDS011;10368;51.436;6.774;2022-08-21T13:52:25;1.95;;;1.05;;
20417;SDS011;10368;51.436;6.774;2022-08-21T13:54:56;1.63;;;0.98;;
20417;SDS011;10368;51.436;6.774;2022-08-21T13:57:28;1.77;;;0.82;;
20417;SDS011;10368;51.436;6.774;2022-08-21T14:02:39;1.05;;;0.90;;
20417;SDS011;10368;51.436;6.774;2022-08-21T14:05:14;2.00;;;0.85;;
20417;SDS011;10368;51.436;6.774;2022-08-21T14:07:42;1.48;;;0.82;;
20417;SDS011;10368;51.436;6.774;2022-08-21T14:10:14;3.40;;;1.10;;
20417;SDS011;10368;51.436;6.774;2022-08-21T14:12:52;1.65;;;1.00;;
20417;SDS011;10368;51.436;6.774;2022-08-21T14:15:24;2.33;;;1.15;;
20417;SDS011;10368;51.436;6.774;2022-08-21T14:17:52;1.83;;;0.98;;
20417;SDS011;10368;51.436;6.774;2022-08-21T14:20:27;3.80;;;1.05;;
20417;SDS011;10368;51.436;6.774;2022-08-21T14:22:55;2.83;;;1.00;;
20417;SDS011;10368;51.436;6.774;2022-08-21T14:30:19;3.42;;;1.00;;
20417;SDS011;10368;51.436;6.774;2022-08-21T14:32:47;1.60;;;1.13;;
20417;SDS011;10368;51.436;6.774;2022-08-21T14:35:15;1.58;;;1.13;;
20417;SDS011;10368;51.436;6.774;2022-08-21T14:37:49;2.90;;;0.98;;
20417;SDS011;10368;51.436;6.774;2022-08-21T14:40:17;3.60;;;1.30;;
20417;SDS011;10368;51.436;6.774;2022-08-21T14:42:45;3.63;;;1.20;;
20417;SDS011;10368;51.436;6.774;2022-08-21T14:45:14;2.38;;;1.30;;
20417;SDS011;10368;51.436;6.774;2022-08-21T14:47:43;5.28;;;1.83;;
20417;SDS011;10368;51.436;6.774;2022-08-21T14:50:11;2.55;;;1.35;;
20417;SDS011;10368;51.436;6.774;2022-08-21T14:52:39;2.45;;;1.00;;
20417;SDS011;10368;51.436;6.774;2022-08-21T14:55:07;3.05;;;1.20;;
20417;SDS011;10368;51.436;6.774;2022-08-21T14:57:40;4.00;;;1.13;;
20417;SDS011;10368;51.436;6.774;2022-08-21T15:00:10;2.83;;;1.00;;
20417;SDS011;10368;51.436;6.774;2022-08-21T15:02:37;5.05;;;1.30;;
20417;SDS011;10368;51.436;6.774;2022-08-21T15:05:05;5.97;;;1.23;;
20417;SDS011;10368;51.436;6.774;2022-08-21T15:07:33;3.53;;;1.05;;
20417;SDS011;10368;51.436;6.774;2022-08-21T15:10:00;1.23;;;0.90;;
20417;SDS011;10368;51.436;6.774;2022-08-21T15:12:27;2.22;;;1.13;;
20417;SDS011;10368;51.436;6.774;2022-08-21T15:14:54;4.60;;;1.67;;
20417;SDS011;10368;51.436;6.774;2022-08-21T15:17:21;3.67;;;1.30;;
20417;SDS011;10368;51.436;6.774;2022-08-21T15:19:49;2.35;;;1.00;;
20417;SDS011;10368;51.436;6.774;2022-08-21T15:22:16;4.30;;;1.85;;
20417;SDS011;10368;51.436;6.774;2022-08-21T15:24:53;1.58;;;0.80;;
20417;SDS011;10368;51.436;6.774;2022-08-21T15:27:20;2.42;;;1.42;;
20417;SDS011;10368;51.436;6.774;2022-08-21T15:29:47;1.92;;;1.40;;
20417;SDS011;10368;51.436;6.774;2022-08-21T15:34:42;2.72;;;1.15;;
20417;SDS011;10368;51.436;6.774;2022-08-21T15:37:09;2.65;;;1.50;;
20417;SDS011;10368;51.436;6.774;2022-08-21T15:39:36;5.15;;;1.40;;
20417;SDS011;10368;51.436;6.774;2022-08-21T15:42:06;4.85;;;1.25;;
20417;SDS011;10368;51.436;6.774;2022-08-21T15:44:36;2.55;;;1.27;;
20417;SDS011;10368;51.436;6.774;2022-08-21T15:47:05;3.92;;;1.23;;
20417;SDS011;10368;51.436;6.774;2022-08-21T15:49:32;4.53;;;1.77;;
20417;SDS011;10368;51.436;6.774;2022-08-21T15:51:59;2.95;;;1.30;;
20417;SDS011;10368;51.436;6.774;2022-08-21T15:54:26;3.05;;;1.15;;
20417;SDS011;10368;51.436;6.774;2022-08-21T15:56:54;3.80;;;1.42;;
20417;SDS011;10368;51.436;6.774;2022-08-21T15:59:21;3.17;;;1.45;;
20417;SDS011;10368;51.436;6.774;2022-08-21T16:01:49;1.60;;;0.90;;
20417;SDS011;10368;51.436;6.774;2022-08-21T16:04:24;2.20;;;1.38;;
20417;SDS011;10368;51.436;6.774;2022-08-21T16:06:52;1.52;;;1.02;;
20417;SDS011;10368;51.436;6.774;2022-08-21T16:09:27;3.88;;;1.17;;
20417;SDS011;10368;51.436;6.774;2022-08-21T16:11:54;4.07;;;1.38;;
20417;SDS011;10368;51.436;6.774;2022-08-21T16:14:21;3.95;;;1.55;;
20417;SDS011;10368;51.436;6.774;2022-08-21T16:16:49;4.95;;;1.50;;
20417;SDS011;10368;51.436;6.774;2022-08-21T16:19:16;3.65;;;1.25;;
20417;SDS011;10368;51.436;6.774;2022-08-21T16:21:44;3.35;;;1.58;;
20417;SDS011;10368;51.436;6.774;2022-08-21T16:24:12;3.75;;;2.58;;